Map

Track Data

SID SEASON NUMBER BASIN SUBBASIN NAME ISO_TIME NATURE LAT LON WMO_WIND WMO_PRES WMO_AGENCY TRACK_TYPE DIST2LAND LANDFALL IFLAG USA_AGENCY USA_ATCF_ID USA_LAT USA_LON USA_RECORD USA_STATUS USA_WIND USA_PRES USA_SSHS USA_R34_NE USA_R34_SE USA_R34_SW USA_R34_NW USA_R50_NE USA_R50_SE USA_R50_SW USA_R50_NW USA_R64_NE USA_R64_SE USA_R64_SW USA_R64_NW USA_POCI USA_ROCI USA_RMW USA_EYE TOKYO_LAT TOKYO_LON TOKYO_GRADE TOKYO_WIND TOKYO_PRES TOKYO_R50_DIR TOKYO_R50_LONG TOKYO_R50_SHORT TOKYO_R30_DIR TOKYO_R30_LONG TOKYO_R30_SHORT TOKYO_LAND CMA_LAT CMA_LON CMA_CAT CMA_WIND CMA_PRES HKO_LAT HKO_LON HKO_CAT HKO_WIND HKO_PRES NEWDELHI_LAT NEWDELHI_LON NEWDELHI_GRADE NEWDELHI_WIND NEWDELHI_PRES NEWDELHI_CI NEWDELHI_DP NEWDELHI_POCI REUNION_LAT REUNION_LON REUNION_TYPE REUNION_WIND REUNION_PRES REUNION_TNUM REUNION_CI REUNION_RMW REUNION_R34_NE REUNION_R34_SE REUNION_R34_SW REUNION_R34_NW REUNION_R50_NE REUNION_R50_SE REUNION_R50_SW REUNION_R50_NW REUNION_R64_NE REUNION_R64_SE REUNION_R64_SW REUNION_R64_NW BOM_LAT BOM_LON BOM_TYPE BOM_WIND BOM_PRES BOM_TNUM BOM_CI BOM_RMW BOM_R34_NE BOM_R34_SE BOM_R34_SW BOM_R34_NW BOM_R50_NE BOM_R50_SE BOM_R50_SW BOM_R50_NW BOM_R64_NE BOM_R64_SE BOM_R64_SW BOM_R64_NW BOM_ROCI BOM_POCI BOM_EYE BOM_POS_METHOD BOM_PRES_METHOD NADI_LAT NADI_LON NADI_CAT NADI_WIND NADI_PRES WELLINGTON_LAT WELLINGTON_LON WELLINGTON_WIND WELLINGTON_PRES DS824_LAT DS824_LON DS824_STAGE DS824_WIND DS824_PRES TD9636_LAT TD9636_LON TD9636_STAGE TD9636_WIND TD9636_PRES TD9635_LAT TD9635_LON TD9635_WIND TD9635_PRES TD9635_ROCI NEUMANN_LAT NEUMANN_LON NEUMANN_CLASS NEUMANN_WIND NEUMANN_PRES MLC_LAT MLC_LON MLC_CLASS MLC_WIND MLC_PRES USA_GUST BOM_GUST BOM_GUST_PER REUNION_GUST REUNION_GUST_PER USA_SEAHGT USA_SEARAD_NE USA_SEARAD_SE USA_SEARAD_SW USA_SEARAD_NW STORM_SPEED STORM_DIR
1919217N21091 1919 21 NI BB NOT_NAMED 1919-08-05 00:00:00 TS 21.4000 90.6000 main 60 60 _________O____ -1 21.4000 90.6000 TC 30 0 0
1919217N21091 1919 21 NI BB NOT_NAMED 1919-08-05 03:00:00 TS 21.4000 90.6000 main 60 60 _________PO___ -1 21.4000 90.6000 TC 30 21.4000 90.6000 1 0 0
1919217N21091 1919 21 NI BB NOT_NAMED 1919-08-05 06:00:00 TS 21.4050 90.5944 main 60 60 _________OP___ -1 21.4000 90.6000 TC 30 21.4125 90.5860 1 0 0
1919217N21091 1919 21 NI BB NOT_NAMED 1919-08-05 09:00:00 TS 21.4086 90.5904 main 60 60 _________PP___ -1 21.4000 90.6000 TC 30 21.4201 90.5776 1 0 0
1919217N21091 1919 21 NI BB NOT_NAMED 1919-08-05 12:00:00 TS 21.4088 90.5902 main 60 60 _________OP___ -1 21.4000 90.6000 TC 30 21.4176 90.5804 1 0 0
1919217N21091 1919 21 NI BB NOT_NAMED 1919-08-05 15:00:00 TS 21.4000 90.6000 main 60 60 _________PO___ -1 21.4000 90.6000 TC 30 21.4000 90.6000 1 0 0
1919217N21091 1919 21 NI BB NOT_NAMED 1919-08-05 18:00:00 TS 21.3837 90.6182 main 60 60 _________OP___ -1 21.4000 90.6000 TC 30 21.3674 90.6364 1 1 138
1919217N21091 1919 21 NI BB NOT_NAMED 1919-08-05 21:00:00 TS 21.3586 90.6448 main 60 60 _________PP___ -1 21.3775 90.6225 TC 30 21.3398 90.6671 1 0 0
1919217N21091 1919 21 NI BB NOT_NAMED 1919-08-06 00:00:00 TS 21.3712 90.6322 main 60 60 _________OP___ -1 21.4000 90.6000 TC 30 21.3423 90.6643 1 1 318
1919217N21091 1919 21 NI BB NOT_NAMED 1919-08-06 03:00:00 TS 21.4562 90.5475 main 45 30 _________PO___ -1 21.5124 90.4949 TC 30 21.4000 90.6000 1 3 316
1919217N21091 1919 21 NI BB NOT_NAMED 1919-08-06 06:00:00 TS 21.6233 90.3741 main 30 0 _________OP___ -1 21.7000 90.3000 TC 30 21.5466 90.4481 1 6 315
1919217N21091 1919 21 NI BB NOT_NAMED 1919-08-06 09:00:00 TS 21.8451 90.1240 main 0 0 _________PP___ -1 21.9426 90.0152 TC 30 21.7476 90.2329 1 7 313
1919217N21091 1919 21 NI BB NOT_NAMED 1919-08-06 12:00:00 TS 22.0874 89.8381 main 0 0 _________OP___ -1 22.2000 89.7000 TC 30 21.9747 89.9762 1 7 312
1919217N21091 1919 21 NI BB NOT_NAMED 1919-08-06 15:00:00 TS 22.3074 89.5749 main 0 0 _________PO___ -1 22.4149 89.4499 TC 30 22.2000 89.7000 1 6 311
1919217N21091 1919 21 NI BB NOT_NAMED 1919-08-06 18:00:00 TS 22.5012 89.3218 main 0 0 _________OP___ -1 22.6000 89.2000 TC 30 22.4024 89.4435 1 6 307
1919217N21091 1919 21 NI BB NOT_NAMED 1919-08-06 21:00:00 TS 22.6837 89.0401 main 0 0 _________PP___ -1 22.7725 88.9075 TC 30 22.5949 89.1727 1 6 302
1919217N21091 1919 21 NI BB NOT_NAMED 1919-08-07 00:00:00 TS 22.8324 88.7452 main 0 0 _________OP___ -1 22.9000 88.6000 TC 30 22.7649 88.8905 1 6 295
1919217N21091 1919 21 NI BB NOT_NAMED 1919-08-07 03:00:00 TS 22.9325 88.4499 main 0 0 _________PO___ -1 22.9649 88.2999 TC 30 22.9000 88.6000 1 6 286
1919217N21091 1919 21 NI BB NOT_NAMED 1919-08-07 06:00:00 TS 22.9909 88.1554 main 0 0 _________OP___ -1 23.0000 88.0000 TC 30 22.9817 88.3108 1 6 281
1919217N21091 1919 21 NI BB NOT_NAMED 1919-08-07 09:00:00 TS 23.0398 87.8609 main 0 0 _________PP___ -1 23.0499 87.7075 TC 30 23.0298 88.0143 1 6 279
1919217N21091 1919 21 NI BB NOT_NAMED 1919-08-07 12:00:00 TS 23.0815 87.5554 main 0 0 _________OP___ -1 23.1000 87.4000 TC 30 23.0629 87.7108 1 6 278
1919217N21091 1919 21 NI BB NOT_NAMED 1919-08-07 15:00:00 TS 23.1213 87.2250 main 0 0 _________PO___ -1 23.1425 87.0499 TC 30 23.1000 87.4000 1 6 280
1919217N21091 1919 21 NI BB NOT_NAMED 1919-08-07 18:00:00 TS 23.1838 86.8972 main 0 0 _________OP___ -1 23.2000 86.7000 TC 30 23.1675 87.0943 1 6 284
1919217N21091 1919 21 NI BB NOT_NAMED 1919-08-07 21:00:00 TS 23.2709 86.5937 main 0 0 _________PP___ -1 23.2998 86.4075 TC 30 23.2420 86.7799 1 6 287
1919217N21091 1919 21 NI BB NOT_NAMED 1919-08-08 00:00:00 TS 23.3603 86.2753 main 0 0 _________OP___ -1 23.4000 86.1000 TC 30 23.3206 86.4505 1 6 284
1919217N21091 1919 21 NI BB NOT_NAMED 1919-08-08 03:00:00 TS 23.4250 85.9074 main 0 0 _________PO___ -1 23.4500 85.7149 TC 30 23.4000 86.1000 1 7 279
1919217N21091 1919 21 NI BB NOT_NAMED 1919-08-08 06:00:00 TS 23.4753 85.5085 main 0 0 _________OP___ -1 23.5000 85.3000 TC 30 23.4506 85.7169 1 7 279
1919217N21091 1919 21 NI BB NOT_NAMED 1919-08-08 09:00:00 TS 23.5412 85.1070 main 0 0 _________PP___ -1 23.5774 84.8999 TC 30 23.5050 85.3141 1 8 283
1919217N21091 1919 21 NI BB NOT_NAMED 1919-08-08 12:00:00 TS 23.6409 84.7021 main 0 0 _________OP___ -1 23.7000 84.5000 TC 30 23.5819 84.9043 1 8 288
1919217N21091 1919 21 NI BB NOT_NAMED 1919-08-08 15:00:00 TS 23.7887 84.2962 main 0 0 _________PO___ -1 23.8775 84.0925 TC 30 23.7000 84.5000 1 8 296
1919217N21091 1919 21 NI BB NOT_NAMED 1919-08-08 18:00:00 TS 23.9887 83.9090 main 0 0 _________OP___ -1 24.1000 83.7000 TC 30 23.8775 84.1179 1 8 302
1919217N21091 1919 21 NI BB NOT_NAMED 1919-08-08 21:00:00 TS 24.2197 83.5425 main 0 0 _________PP___ -1 24.3424 83.3424 TC 30 24.0970 83.7426 1 8 306
1919217N21091 1919 21 NI BB NOT_NAMED 1919-08-09 00:00:00 TS 24.4716 83.1854 main 0 0 _________OP___ -1 24.6000 83.0000 TC 30 24.3431 83.3709 1 8 308
1919217N21091 1919 21 NI BB NOT_NAMED 1919-08-09 03:00:00 TS 24.7249 82.8287 main 0 0 _________PO___ -1 24.8499 82.6573 TC 30 24.6000 83.0000 1 8 307
1919217N21091 1919 21 NI BB NOT_NAMED 1919-08-09 06:00:00 TS 24.9754 82.4604 main 0 0 _________OP___ -1 25.1000 82.3000 TC 30 24.8507 82.6208 1 9 306
1919217N21091 1919 21 NI BB NOT_NAMED 1919-08-09 09:00:00 TS 25.2324 82.0712 main 0 0 _________PP___ -1 25.3575 81.9000 TC 30 25.1072 82.2424 1 9 306
1919217N21091 1919 21 NI BB NOT_NAMED 1919-08-09 12:00:00 TS 25.4801 81.6839 main 0 0 _________OP___ -1 25.6000 81.5000 TC 30 25.3601 81.8677 1 8 305
1919217N21091 1919 21 NI BB NOT_NAMED 1919-08-09 15:00:00 TS 25.7037 81.3211 main 0 0 _________PO___ -1 25.8074 81.1423 TC 30 25.6000 81.5000 1 7 304
1919217N21091 1919 21 NI BB NOT_NAMED 1919-08-09 18:00:00 TS 25.8971 80.9952 main 0 0 _________OP___ -1 26.0000 80.8000 TC 30 25.8200 81.1415 1 7 303
1919217N21091 1919 21 NI BB NOT_NAMED 1919-08-09 21:00:00 TS 26.0929 80.6555 main 0 0 _________PP___ -1 26.1977 80.4528 TC 30 26.0231 80.7906 1 7 302
1919217N21091 1919 21 NI BB NOT_NAMED 1919-08-10 00:00:00 TS 26.2764 80.3296 main 0 0 _________OP___ -1 26.4000 80.1000 TC 30 26.2146 80.4444 1 6 302
1919217N21091 1919 21 NI BB NOT_NAMED 1919-08-10 03:00:00 NR 26.4000 80.1000 main 0 __________O___ -1 TC 26.4000 80.1000 1 5 301

About IBTrACS Database

This database is a web-friendly format of International Best Track Archive for Climate Stewardship (IBTrACS), a global best track data archive curated by NOAA dating back to 1842.

Updated: 2021-11-26